sensor_id;sensor_type;location;lat;lon;timestamp;P1;durP1;ratioP1;P2;durP2;ratioP2
13185;SDS011;6658;53.080;7.428;2023-10-31T00:02:14;10.33;;;9.33;;
13185;SDS011;6658;53.080;7.428;2023-10-31T00:04:39;9.77;;;8.77;;
13185;SDS011;6658;53.080;7.428;2023-10-31T00:07:05;9.57;;;8.67;;
13185;SDS011;6658;53.080;7.428;2023-10-31T00:09:31;9.67;;;8.77;;
13185;SDS011;6658;53.080;7.428;2023-10-31T00:11:57;10.07;;;9.27;;
13185;SDS011;6658;53.080;7.428;2023-10-31T00:26:28;12.23;;;9.57;;
13185;SDS011;6658;53.080;7.428;2023-10-31T00:28:54;10.23;;;9.23;;
13185;SDS011;6658;53.080;7.428;2023-10-31T00:31:19;12.03;;;10.83;;
13185;SDS011;6658;53.080;7.428;2023-10-31T00:33:45;10.40;;;9.60;;
13185;SDS011;6658;53.080;7.428;2023-10-31T00:36:11;11.37;;;9.77;;
13185;SDS011;6658;53.080;7.428;2023-10-31T00:38:36;11.63;;;10.53;;
13185;SDS011;6658;53.080;7.428;2023-10-31T00:41:02;10.80;;;9.80;;
13185;SDS011;6658;53.080;7.428;2023-10-31T00:43:28;11.10;;;10.00;;
13185;SDS011;6658;53.080;7.428;2023-10-31T00:45:54;10.67;;;9.77;;
13185;SDS011;6658;53.080;7.428;2023-10-31T00:48:19;11.23;;;10.23;;
13185;SDS011;6658;53.080;7.428;2023-10-31T00:50:45;10.77;;;9.77;;
13185;SDS011;6658;53.080;7.428;2023-10-31T00:53:11;11.23;;;10.23;;
13185;SDS011;6658;53.080;7.428;2023-10-31T00:55:38;10.70;;;9.70;;
13185;SDS011;6658;53.080;7.428;2023-10-31T00:58:04;12.13;;;11.03;;
13185;SDS011;6658;53.080;7.428;2023-10-31T01:00:30;11.60;;;10.50;;
13185;SDS011;6658;53.080;7.428;2023-10-31T01:02:56;12.17;;;10.87;;
13185;SDS011;6658;53.080;7.428;2023-10-31T01:05:22;12.63;;;11.43;;
13185;SDS011;6658;53.080;7.428;2023-10-31T01:07:48;12.43;;;11.13;;
13185;SDS011;6658;53.080;7.428;2023-10-31T01:10:13;11.70;;;10.73;;
13185;SDS011;6658;53.080;7.428;2023-10-31T01:12:39;12.37;;;11.27;;
13185;SDS011;6658;53.080;7.428;2023-10-31T01:15:05;12.30;;;11.10;;
13185;SDS011;6658;53.080;7.428;2023-10-31T01:17:32;13.40;;;11.87;;
13185;SDS011;6658;53.080;7.428;2023-10-31T01:19:57;13.30;;;11.90;;
13185;SDS011;6658;53.080;7.428;2023-10-31T01:22:23;14.40;;;11.90;;
13185;SDS011;6658;53.080;7.428;2023-10-31T01:24:49;15.97;;;11.80;;
13185;SDS011;6658;53.080;7.428;2023-10-31T01:27:14;13.80;;;11.80;;
13185;SDS011;6658;53.080;7.428;2023-10-31T01:29:40;14.50;;;12.57;;
13185;SDS011;6658;53.080;7.428;2023-10-31T01:32:06;13.93;;;12.40;;
13185;SDS011;6658;53.080;7.428;2023-10-31T01:34:32;14.97;;;12.17;;
13185;SDS011;6658;53.080;7.428;2023-10-31T01:36:57;20.00;;;12.93;;
13185;SDS011;6658;53.080;7.428;2023-10-31T01:39:23;19.17;;;13.13;;
13185;SDS011;6658;53.080;7.428;2023-10-31T01:41:49;16.30;;;12.43;;
13185;SDS011;6658;53.080;7.428;2023-10-31T01:44:14;15.13;;;12.07;;
13185;SDS011;6658;53.080;7.428;2023-10-31T01:46:40;14.97;;;12.50;;
13185;SDS011;6658;53.080;7.428;2023-10-31T01:49:06;13.93;;;12.40;;
13185;SDS011;6658;53.080;7.428;2023-10-31T01:51:31;18.20;;;13.77;;
13185;SDS011;6658;53.080;7.428;2023-10-31T01:53:57;18.13;;;12.67;;
13185;SDS011;6658;53.080;7.428;2023-10-31T01:56:23;16.27;;;13.00;;
13185;SDS011;6658;53.080;7.428;2023-10-31T01:58:53;17.00;;;13.13;;
13185;SDS011;6658;53.080;7.428;2023-10-31T02:01:19;17.77;;;13.03;;
13185;SDS011;6658;53.080;7.428;2023-10-31T02:03:45;16.30;;;12.63;;
13185;SDS011;6658;53.080;7.428;2023-10-31T02:06:10;16.23;;;12.80;;
13185;SDS011;6658;53.080;7.428;2023-10-31T02:08:36;14.23;;;12.50;;
13185;SDS011;6658;53.080;7.428;2023-10-31T02:11:02;14.03;;;12.00;;
13185;SDS011;6658;53.080;7.428;2023-10-31T02:13:28;15.90;;;12.80;;
13185;SDS011;6658;53.080;7.428;2023-10-31T02:15:54;14.33;;;12.57;;
13185;SDS011;6658;53.080;7.428;2023-10-31T02:18:20;13.50;;;11.97;;
13185;SDS011;6658;53.080;7.428;2023-10-31T02:20:46;14.40;;;12.20;;
13185;SDS011;6658;53.080;7.428;2023-10-31T02:23:15;13.60;;;12.23;;
13185;SDS011;6658;53.080;7.428;2023-10-31T02:25:41;13.13;;;11.83;;
13185;SDS011;6658;53.080;7.428;2023-10-31T02:28:07;13.40;;;12.00;;
13185;SDS011;6658;53.080;7.428;2023-10-31T02:30:33;14.00;;;11.57;;
13185;SDS011;6658;53.080;7.428;2023-10-31T02:33:00;13.33;;;11.93;;
13185;SDS011;6658;53.080;7.428;2023-10-31T02:35:27;12.40;;;11.03;;
13185;SDS011;6658;53.080;7.428;2023-10-31T02:37:52;14.23;;;12.80;;
13185;SDS011;6658;53.080;7.428;2023-10-31T02:40:18;13.20;;;11.50;;
13185;SDS011;6658;53.080;7.428;2023-10-31T02:42:44;12.23;;;11.03;;
13185;SDS011;6658;53.080;7.428;2023-10-31T02:45:09;13.60;;;12.20;;
13185;SDS011;6658;53.080;7.428;2023-10-31T02:47:36;12.57;;;11.27;;
13185;SDS011;6658;53.080;7.428;2023-10-31T02:50:01;13.00;;;11.73;;
13185;SDS011;6658;53.080;7.428;2023-10-31T02:52:27;12.53;;;11.27;;
13185;SDS011;6658;53.080;7.428;2023-10-31T02:54:53;11.10;;;9.97;;
13185;SDS011;6658;53.080;7.428;2023-10-31T02:57:18;5.27;;;4.77;;
13185;SDS011;6658;53.080;7.428;2023-10-31T02:59:44;2.30;;;2.10;;
13185;SDS011;6658;53.080;7.428;2023-10-31T03:02:11;0.90;;;0.90;;
13185;SDS011;6658;53.080;7.428;2023-10-31T03:04:37;1.17;;;0.87;;
13185;SDS011;6658;53.080;7.428;2023-10-31T03:07:02;1.10;;;1.00;;
13185;SDS011;6658;53.080;7.428;2023-10-31T03:09:28;2.00;;;0.80;;
13185;SDS011;6658;53.080;7.428;2023-10-31T03:11:54;1.20;;;0.53;;
13185;SDS011;6658;53.080;7.428;2023-10-31T03:14:20;0.97;;;0.70;;
13185;SDS011;6658;53.080;7.428;2023-10-31T03:16:45;1.30;;;0.40;;
13185;SDS011;6658;53.080;7.428;2023-10-31T03:19:11;2.93;;;0.70;;
13185;SDS011;6658;53.080;7.428;2023-10-31T03:21:37;2.20;;;0.70;;
13185;SDS011;6658;53.080;7.428;2023-10-31T03:24:03;1.23;;;0.60;;
13185;SDS011;6658;53.080;7.428;2023-10-31T03:26:29;2.37;;;0.80;;
13185;SDS011;6658;53.080;7.428;2023-10-31T03:28:55;2.17;;;0.70;;
13185;SDS011;6658;53.080;7.428;2023-10-31T03:31:22;3.13;;;1.00;;
13185;SDS011;6658;53.080;7.428;2023-10-31T03:33:48;0.93;;;0.63;;
13185;SDS011;6658;53.080;7.428;2023-10-31T03:36:14;1.00;;;0.87;;
13185;SDS011;6658;53.080;7.428;2023-10-31T03:38:40;2.83;;;0.73;;
13185;SDS011;6658;53.080;7.428;2023-10-31T03:41:06;0.70;;;0.53;;
13185;SDS011;6658;53.080;7.428;2023-10-31T03:43:32;2.53;;;1.00;;
13185;SDS011;6658;53.080;7.428;2023-10-31T03:45:58;1.10;;;0.80;;
13185;SDS011;6658;53.080;7.428;2023-10-31T03:48:24;0.90;;;0.70;;
13185;SDS011;6658;53.080;7.428;2023-10-31T03:50:50;3.40;;;0.77;;
13185;SDS011;6658;53.080;7.428;2023-10-31T03:53:16;1.23;;;0.97;;
13185;SDS011;6658;53.080;7.428;2023-10-31T03:55:42;0.77;;;0.60;;
13185;SDS011;6658;53.080;7.428;2023-10-31T03:58:08;3.47;;;1.00;;
13185;SDS011;6658;53.080;7.428;2023-10-31T04:00:33;0.87;;;0.80;;
13185;SDS011;6658;53.080;7.428;2023-10-31T04:02:59;2.57;;;1.30;;
13185;SDS011;6658;53.080;7.428;2023-10-31T04:05:25;1.47;;;0.90;;
13185;SDS011;6658;53.080;7.428;2023-10-31T04:07:50;2.93;;;1.60;;
13185;SDS011;6658;53.080;7.428;2023-10-31T04:10:17;1.77;;;1.40;;
13185;SDS011;6658;53.080;7.428;2023-10-31T04:12:43;1.83;;;1.47;;
13185;SDS011;6658;53.080;7.428;2023-10-31T04:15:09;3.20;;;1.30;;
13185;SDS011;6658;53.080;7.428;2023-10-31T04:17:35;1.03;;;1.03;;
13185;SDS011;6658;53.080;7.428;2023-10-31T04:20:01;1.90;;;1.30;;
13185;SDS011;6658;53.080;7.428;2023-10-31T04:22:27;1.27;;;1.10;;
13185;SDS011;6658;53.080;7.428;2023-10-31T04:24:53;2.13;;;1.33;;
13185;SDS011;6658;53.080;7.428;2023-10-31T04:27:18;2.27;;;1.00;;
13185;SDS011;6658;53.080;7.428;2023-10-31T04:29:44;1.83;;;1.00;;
13185;SDS011;6658;53.080;7.428;2023-10-31T04:32:10;1.13;;;1.00;;
13185;SDS011;6658;53.080;7.428;2023-10-31T04:34:36;1.90;;;0.97;;
13185;SDS011;6658;53.080;7.428;2023-10-31T04:37:02;1.63;;;0.93;;
13185;SDS011;6658;53.080;7.428;2023-10-31T04:39:28;0.87;;;0.80;;
13185;SDS011;6658;53.080;7.428;2023-10-31T04:41:53;1.13;;;1.00;;
13185;SDS011;6658;53.080;7.428;2023-10-31T04:44:19;1.67;;;0.90;;
13185;SDS011;6658;53.080;7.428;2023-10-31T04:46:44;0.87;;;0.60;;
13185;SDS011;6658;53.080;7.428;2023-10-31T04:49:10;2.83;;;1.20;;
13185;SDS011;6658;53.080;7.428;2023-10-31T04:51:36;1.73;;;1.07;;
13185;SDS011;6658;53.080;7.428;2023-10-31T04:54:02;1.33;;;1.00;;
13185;SDS011;6658;53.080;7.428;2023-10-31T04:56:28;2.40;;;1.40;;
13185;SDS011;6658;53.080;7.428;2023-10-31T04:58:54;1.43;;;1.20;;
13185;SDS011;6658;53.080;7.428;2023-10-31T05:01:20;2.43;;;1.20;;
13185;SDS011;6658;53.080;7.428;2023-10-31T05:03:46;1.10;;;0.90;;
13185;SDS011;6658;53.080;7.428;2023-10-31T05:06:11;2.57;;;1.50;;
13185;SDS011;6658;53.080;7.428;2023-10-31T05:08:37;2.97;;;1.73;;
13185;SDS011;6658;53.080;7.428;2023-10-31T05:11:04;2.10;;;1.90;;
13185;SDS011;6658;53.080;7.428;2023-10-31T05:13:30;3.93;;;2.23;;
13185;SDS011;6658;53.080;7.428;2023-10-31T05:15:56;2.03;;;1.70;;
13185;SDS011;6658;53.080;7.428;2023-10-31T05:18:21;2.53;;;1.93;;
13185;SDS011;6658;53.080;7.428;2023-10-31T05:20:47;2.10;;;1.87;;
13185;SDS011;6658;53.080;7.428;2023-10-31T05:23:13;2.20;;;2.00;;
13185;SDS011;6658;53.080;7.428;2023-10-31T05:25:39;1.70;;;1.60;;
13185;SDS011;6658;53.080;7.428;2023-10-31T05:28:04;1.83;;;1.73;;
13185;SDS011;6658;53.080;7.428;2023-10-31T05:30:30;3.30;;;2.00;;
13185;SDS011;6658;53.080;7.428;2023-10-31T05:32:56;2.00;;;1.73;;
13185;SDS011;6658;53.080;7.428;2023-10-31T05:35:22;2.17;;;1.70;;
13185;SDS011;6658;53.080;7.428;2023-10-31T05:37:48;2.00;;;1.70;;
13185;SDS011;6658;53.080;7.428;2023-10-31T05:40:14;3.23;;;2.17;;
13185;SDS011;6658;53.080;7.428;2023-10-31T05:42:41;2.37;;;2.00;;
13185;SDS011;6658;53.080;7.428;2023-10-31T05:45:07;2.13;;;1.90;;
13185;SDS011;6658;53.080;7.428;2023-10-31T05:47:33;1.50;;;1.40;;
13185;SDS011;6658;53.080;7.428;2023-10-31T05:49:59;2.47;;;1.80;;
13185;SDS011;6658;53.080;7.428;2023-10-31T05:52:28;1.63;;;1.30;;
13185;SDS011;6658;53.080;7.428;2023-10-31T05:54:57;1.40;;;1.20;;
13185;SDS011;6658;53.080;7.428;2023-10-31T05:57:23;2.67;;;1.30;;
13185;SDS011;6658;53.080;7.428;2023-10-31T05:59:49;2.40;;;1.70;;
13185;SDS011;6658;53.080;7.428;2023-10-31T06:02:14;1.40;;;1.30;;
13185;SDS011;6658;53.080;7.428;2023-10-31T06:04:40;1.70;;;1.20;;
13185;SDS011;6658;53.080;7.428;2023-10-31T06:07:06;3.80;;;1.07;;
13185;SDS011;6658;53.080;7.428;2023-10-31T06:09:32;1.10;;;1.00;;
13185;SDS011;6658;53.080;7.428;2023-10-31T06:12:00;1.20;;;1.10;;
13185;SDS011;6658;53.080;7.428;2023-10-31T06:14:26;2.93;;;1.27;;
13185;SDS011;6658;53.080;7.428;2023-10-31T06:16:52;2.27;;;1.27;;
13185;SDS011;6658;53.080;7.428;2023-10-31T06:19:18;0.90;;;0.90;;
13185;SDS011;6658;53.080;7.428;2023-10-31T06:21:44;3.30;;;1.00;;
13185;SDS011;6658;53.080;7.428;2023-10-31T06:24:10;1.83;;;0.80;;
13185;SDS011;6658;53.080;7.428;2023-10-31T06:26:35;0.83;;;0.80;;
13185;SDS011;6658;53.080;7.428;2023-10-31T06:29:01;0.90;;;0.70;;
13185;SDS011;6658;53.080;7.428;2023-10-31T06:31:27;1.00;;;0.80;;
13185;SDS011;6658;53.080;7.428;2023-10-31T06:33:52;1.50;;;0.80;;
13185;SDS011;6658;53.080;7.428;2023-10-31T06:36:18;3.07;;;1.50;;
13185;SDS011;6658;53.080;7.428;2023-10-31T06:38:44;1.30;;;0.80;;
13185;SDS011;6658;53.080;7.428;2023-10-31T06:41:09;0.97;;;0.60;;
13185;SDS011;6658;53.080;7.428;2023-10-31T06:43:35;1.03;;;0.63;;
13185;SDS011;6658;53.080;7.428;2023-10-31T06:46:01;0.53;;;0.53;;
13185;SDS011;6658;53.080;7.428;2023-10-31T06:48:29;0.63;;;0.63;;
13185;SDS011;6658;53.080;7.428;2023-10-31T06:50:55;0.60;;;0.50;;
13185;SDS011;6658;53.080;7.428;2023-10-31T06:53:20;1.90;;;0.60;;
13185;SDS011;6658;53.080;7.428;2023-10-31T06:55:46;0.53;;;0.43;;
13185;SDS011;6658;53.080;7.428;2023-10-31T06:58:12;0.63;;;0.50;;
13185;SDS011;6658;53.080;7.428;2023-10-31T07:00:37;0.70;;;0.37;;
13185;SDS011;6658;53.080;7.428;2023-10-31T07:03:04;1.33;;;0.40;;
13185;SDS011;6658;53.080;7.428;2023-10-31T07:05:34;0.40;;;0.40;;
13185;SDS011;6658;53.080;7.428;2023-10-31T07:08:00;0.80;;;0.60;;
13185;SDS011;6658;53.080;7.428;2023-10-31T07:10:25;0.77;;;0.70;;
13185;SDS011;6658;53.080;7.428;2023-10-31T07:12:51;0.80;;;0.50;;
13185;SDS011;6658;53.080;7.428;2023-10-31T07:15:17;0.60;;;0.53;;
13185;SDS011;6658;53.080;7.428;2023-10-31T07:17:42;1.30;;;0.50;;
13185;SDS011;6658;53.080;7.428;2023-10-31T07:20:08;1.03;;;0.53;;
13185;SDS011;6658;53.080;7.428;2023-10-31T07:22:34;0.50;;;0.50;;
13185;SDS011;6658;53.080;7.428;2023-10-31T07:25:01;0.77;;;0.60;;
13185;SDS011;6658;53.080;7.428;2023-10-31T07:27:28;1.60;;;0.50;;
13185;SDS011;6658;53.080;7.428;2023-10-31T07:29:54;0.77;;;0.60;;
13185;SDS011;6658;53.080;7.428;2023-10-31T07:32:20;1.60;;;0.60;;
13185;SDS011;6658;53.080;7.428;2023-10-31T07:34:46;0.63;;;0.30;;
13185;SDS011;6658;53.080;7.428;2023-10-31T07:37:11;1.67;;;0.70;;
13185;SDS011;6658;53.080;7.428;2023-10-31T07:39:37;1.00;;;0.50;;
13185;SDS011;6658;53.080;7.428;2023-10-31T07:42:03;0.73;;;0.60;;
13185;SDS011;6658;53.080;7.428;2023-10-31T07:44:29;1.70;;;0.80;;
13185;SDS011;6658;53.080;7.428;2023-10-31T07:46:55;1.67;;;0.80;;
13185;SDS011;6658;53.080;7.428;2023-10-31T07:49:21;0.97;;;0.77;;
13185;SDS011;6658;53.080;7.428;2023-10-31T07:51:47;1.00;;;0.77;;
13185;SDS011;6658;53.080;7.428;2023-10-31T07:54:13;1.00;;;0.90;;
13185;SDS011;6658;53.080;7.428;2023-10-31T07:56:40;1.27;;;1.10;;
13185;SDS011;6658;53.080;7.428;2023-10-31T07:59:07;1.30;;;1.10;;
13185;SDS011;6658;53.080;7.428;2023-10-31T08:01:33;1.53;;;1.30;;
13185;SDS011;6658;53.080;7.428;2023-10-31T08:04:00;1.23;;;1.10;;
13185;SDS011;6658;53.080;7.428;2023-10-31T08:06:25;1.13;;;1.07;;
13185;SDS011;6658;53.080;7.428;2023-10-31T08:08:51;1.47;;;1.20;;
13185;SDS011;6658;53.080;7.428;2023-10-31T08:11:17;2.03;;;1.77;;
13185;SDS011;6658;53.080;7.428;2023-10-31T08:13:43;1.57;;;1.37;;
13185;SDS011;6658;53.080;7.428;2023-10-31T08:16:09;1.70;;;1.60;;
13185;SDS011;6658;53.080;7.428;2023-10-31T08:18:35;3.03;;;2.00;;
13185;SDS011;6658;53.080;7.428;2023-10-31T08:21:01;2.30;;;1.50;;
13185;SDS011;6658;53.080;7.428;2023-10-31T08:23:28;1.90;;;1.70;;
13185;SDS011;6658;53.080;7.428;2023-10-31T08:25:54;1.63;;;1.47;;
13185;SDS011;6658;53.080;7.428;2023-10-31T08:28:21;2.00;;;1.80;;
13185;SDS011;6658;53.080;7.428;2023-10-31T08:30:46;2.67;;;1.70;;
13185;SDS011;6658;53.080;7.428;2023-10-31T08:33:12;3.50;;;1.50;;
13185;SDS011;6658;53.080;7.428;2023-10-31T08:35:39;1.77;;;1.43;;
13185;SDS011;6658;53.080;7.428;2023-10-31T08:38:05;1.50;;;1.40;;
13185;SDS011;6658;53.080;7.428;2023-10-31T08:40:30;2.53;;;1.50;;
13185;SDS011;6658;53.080;7.428;2023-10-31T08:42:56;1.50;;;1.40;;
13185;SDS011;6658;53.080;7.428;2023-10-31T08:45:22;1.57;;;1.47;;
13185;SDS011;6658;53.080;7.428;2023-10-31T08:47:48;2.50;;;1.60;;
13185;SDS011;6658;53.080;7.428;2023-10-31T08:50:13;1.83;;;1.47;;
13185;SDS011;6658;53.080;7.428;2023-10-31T08:52:39;2.33;;;1.60;;
13185;SDS011;6658;53.080;7.428;2023-10-31T08:55:06;2.70;;;1.50;;
13185;SDS011;6658;53.080;7.428;2023-10-31T08:57:32;1.40;;;1.30;;
13185;SDS011;6658;53.080;7.428;2023-10-31T08:59:59;2.60;;;1.30;;
13185;SDS011;6658;53.080;7.428;2023-10-31T09:02:25;1.70;;;1.20;;
13185;SDS011;6658;53.080;7.428;2023-10-31T09:04:51;3.43;;;1.10;;
13185;SDS011;6658;53.080;7.428;2023-10-31T09:07:16;1.37;;;1.00;;
13185;SDS011;6658;53.080;7.428;2023-10-31T09:09:42;1.47;;;1.00;;
13185;SDS011;6658;53.080;7.428;2023-10-31T09:12:08;3.07;;;1.03;;
13185;SDS011;6658;53.080;7.428;2023-10-31T09:14:34;1.00;;;0.80;;
13185;SDS011;6658;53.080;7.428;2023-10-31T09:17:00;0.93;;;0.70;;
13185;SDS011;6658;53.080;7.428;2023-10-31T09:19:26;0.73;;;0.60;;
13185;SDS011;6658;53.080;7.428;2023-10-31T09:21:52;0.70;;;0.50;;
13185;SDS011;6658;53.080;7.428;2023-10-31T09:24:18;1.93;;;0.80;;
13185;SDS011;6658;53.080;7.428;2023-10-31T09:26:43;0.90;;;0.60;;
13185;SDS011;6658;53.080;7.428;2023-10-31T09:29:12;0.90;;;0.60;;
13185;SDS011;6658;53.080;7.428;2023-10-31T09:31:38;1.00;;;0.50;;
13185;SDS011;6658;53.080;7.428;2023-10-31T09:34:04;1.03;;;0.50;;
13185;SDS011;6658;53.080;7.428;2023-10-31T09:36:33;0.80;;;0.60;;
13185;SDS011;6658;53.080;7.428;2023-10-31T09:39:02;2.00;;;0.60;;
13185;SDS011;6658;53.080;7.428;2023-10-31T09:41:28;1.83;;;1.33;;
13185;SDS011;6658;53.080;7.428;2023-10-31T09:43:55;1.37;;;0.80;;
13185;SDS011;6658;53.080;7.428;2023-10-31T09:46:21;1.40;;;0.60;;
13185;SDS011;6658;53.080;7.428;2023-10-31T09:48:48;1.23;;;0.63;;
13185;SDS011;6658;53.080;7.428;2023-10-31T09:51:15;1.93;;;1.07;;
13185;SDS011;6658;53.080;7.428;2023-10-31T09:53:41;2.20;;;0.70;;
13185;SDS011;6658;53.080;7.428;2023-10-31T09:56:09;1.20;;;0.70;;
13185;SDS011;6658;53.080;7.428;2023-10-31T09:58:35;3.40;;;0.70;;
13185;SDS011;6658;53.080;7.428;2023-10-31T10:01:01;1.20;;;0.80;;
13185;SDS011;6658;53.080;7.428;2023-10-31T10:03:28;1.23;;;0.40;;
13185;SDS011;6658;53.080;7.428;2023-10-31T10:05:54;0.37;;;0.33;;
13185;SDS011;6658;53.080;7.428;2023-10-31T10:08:20;1.67;;;0.47;;
13185;SDS011;6658;53.080;7.428;2023-10-31T10:10:47;0.97;;;0.80;;
13185;SDS011;6658;53.080;7.428;2023-10-31T10:13:16;2.17;;;0.60;;
13185;SDS011;6658;53.080;7.428;2023-10-31T10:15:49;0.90;;;0.33;;
13185;SDS011;6658;53.080;7.428;2023-10-31T10:18:29;1.27;;;0.50;;
13185;SDS011;6658;53.080;7.428;2023-10-31T10:21:07;0.83;;;0.40;;
13185;SDS011;6658;53.080;7.428;2023-10-31T10:23:33;2.27;;;0.80;;
13185;SDS011;6658;53.080;7.428;2023-10-31T10:26:00;2.20;;;0.60;;
13185;SDS011;6658;53.080;7.428;2023-10-31T10:28:26;1.90;;;1.00;;
13185;SDS011;6658;53.080;7.428;2023-10-31T10:30:54;1.07;;;0.40;;
13185;SDS011;6658;53.080;7.428;2023-10-31T10:33:20;3.73;;;3.43;;
13185;SDS011;6658;53.080;7.428;2023-10-31T10:35:47;2.10;;;0.50;;
13185;SDS011;6658;53.080;7.428;2023-10-31T10:38:13;1.23;;;0.50;;
13185;SDS011;6658;53.080;7.428;2023-10-31T10:40:41;1.50;;;0.30;;
13185;SDS011;6658;53.080;7.428;2023-10-31T10:43:12;0.93;;;0.30;;
13185;SDS011;6658;53.080;7.428;2023-10-31T10:45:43;0.43;;;0.40;;
13185;SDS011;6658;53.080;7.428;2023-10-31T10:48:11;0.73;;;0.30;;
13185;SDS011;6658;53.080;7.428;2023-10-31T10:50:43;0.53;;;0.53;;
13185;SDS011;6658;53.080;7.428;2023-10-31T10:53:22;3.27;;;0.57;;
13185;SDS011;6658;53.080;7.428;2023-10-31T10:55:52;2.80;;;0.37;;
13185;SDS011;6658;53.080;7.428;2023-10-31T10:59:00;3.13;;;0.50;;
13185;SDS011;6658;53.080;7.428;2023-10-31T11:01:28;2.13;;;0.80;;
13185;SDS011;6658;53.080;7.428;2023-10-31T11:03:56;0.80;;;0.37;;
13185;SDS011;6658;53.080;7.428;2023-10-31T11:06:22;1.03;;;0.50;;
13185;SDS011;6658;53.080;7.428;2023-10-31T11:08:49;1.73;;;0.60;;
13185;SDS011;6658;53.080;7.428;2023-10-31T11:11:17;1.37;;;0.40;;
13185;SDS011;6658;53.080;7.428;2023-10-31T11:13:45;0.40;;;0.40;;
13185;SDS011;6658;53.080;7.428;2023-10-31T11:16:26;0.77;;;0.30;;
13185;SDS011;6658;53.080;7.428;2023-10-31T11:18:55;1.90;;;0.40;;
13185;SDS011;6658;53.080;7.428;2023-10-31T11:21:22;0.87;;;0.30;;
13185;SDS011;6658;53.080;7.428;2023-10-31T11:23:56;0.80;;;0.47;;
13185;SDS011;6658;53.080;7.428;2023-10-31T11:26:25;1.13;;;0.30;;
13185;SDS011;6658;53.080;7.428;2023-10-31T11:28:51;1.23;;;0.40;;
13185;SDS011;6658;53.080;7.428;2023-10-31T11:31:17;0.63;;;0.40;;
13185;SDS011;6658;53.080;7.428;2023-10-31T11:33:43;1.83;;;0.30;;
13185;SDS011;6658;53.080;7.428;2023-10-31T11:36:11;0.70;;;0.30;;
13185;SDS011;6658;53.080;7.428;2023-10-31T11:38:37;0.73;;;0.30;;
13185;SDS011;6658;53.080;7.428;2023-10-31T11:41:03;0.40;;;0.40;;
13185;SDS011;6658;53.080;7.428;2023-10-31T11:44:03;0.63;;;0.40;;
13185;SDS011;6658;53.080;7.428;2023-10-31T11:46:22;2.67;;;0.60;;
13185;SDS011;6658;53.080;7.428;2023-10-31T11:48:52;0.30;;;0.30;;
13185;SDS011;6658;53.080;7.428;2023-10-31T11:51:19;0.40;;;0.30;;
13185;SDS011;6658;53.080;7.428;2023-10-31T11:53:45;1.43;;;0.63;;
13185;SDS011;6658;53.080;7.428;2023-10-31T11:56:12;1.30;;;0.40;;
13185;SDS011;6658;53.080;7.428;2023-10-31T11:58:39;0.60;;;0.50;;
13185;SDS011;6658;53.080;7.428;2023-10-31T12:01:06;0.70;;;0.50;;
13185;SDS011;6658;53.080;7.428;2023-10-31T12:03:41;1.27;;;0.40;;
13185;SDS011;6658;53.080;7.428;2023-10-31T12:06:12;0.97;;;0.77;;
13185;SDS011;6658;53.080;7.428;2023-10-31T12:08:39;2.20;;;0.60;;
13185;SDS011;6658;53.080;7.428;2023-10-31T12:13:40;0.63;;;0.30;;
13185;SDS011;6658;53.080;7.428;2023-10-31T12:16:07;0.97;;;0.40;;
13185;SDS011;6658;53.080;7.428;2023-10-31T12:18:34;0.20;;;0.20;;
13185;SDS011;6658;53.080;7.428;2023-10-31T12:21:00;0.93;;;0.30;;
13185;SDS011;6658;53.080;7.428;2023-10-31T12:23:27;1.40;;;0.50;;
13185;SDS011;6658;53.080;7.428;2023-10-31T12:25:54;0.63;;;0.30;;
13185;SDS011;6658;53.080;7.428;2023-10-31T12:28:23;1.30;;;0.47;;
13185;SDS011;6658;53.080;7.428;2023-10-31T12:30:51;1.53;;;0.77;;
13185;SDS011;6658;53.080;7.428;2023-10-31T12:33:24;2.37;;;0.40;;
13185;SDS011;6658;53.080;7.428;2023-10-31T12:35:58;1.33;;;0.30;;
13185;SDS011;6658;53.080;7.428;2023-10-31T12:38:26;1.80;;;0.40;;
13185;SDS011;6658;53.080;7.428;2023-10-31T12:40:52;1.33;;;0.80;;
13185;SDS011;6658;53.080;7.428;2023-10-31T12:43:19;1.63;;;1.10;;
13185;SDS011;6658;53.080;7.428;2023-10-31T12:45:45;2.47;;;0.77;;
13185;SDS011;6658;53.080;7.428;2023-10-31T12:48:11;1.43;;;0.60;;
13185;SDS011;6658;53.080;7.428;2023-10-31T12:50:37;1.80;;;0.60;;
13185;SDS011;6658;53.080;7.428;2023-10-31T12:53:06;0.53;;;0.37;;
13185;SDS011;6658;53.080;7.428;2023-10-31T12:55:39;1.13;;;0.60;;
13185;SDS011;6658;53.080;7.428;2023-10-31T12:58:06;1.27;;;0.70;;
13185;SDS011;6658;53.080;7.428;2023-10-31T13:00:35;1.63;;;0.67;;
13185;SDS011;6658;53.080;7.428;2023-10-31T13:05:28;1.33;;;0.80;;
13185;SDS011;6658;53.080;7.428;2023-10-31T13:07:54;1.37;;;0.60;;
13185;SDS011;6658;53.080;7.428;2023-10-31T13:10:25;0.57;;;0.53;;
13185;SDS011;6658;53.080;7.428;2023-10-31T13:12:52;2.10;;;0.60;;
13185;SDS011;6658;53.080;7.428;2023-10-31T13:15:21;2.37;;;0.70;;
13185;SDS011;6658;53.080;7.428;2023-10-31T13:17:49;1.57;;;0.47;;
13185;SDS011;6658;53.080;7.428;2023-10-31T13:20:16;2.27;;;0.60;;
13185;SDS011;6658;53.080;7.428;2023-10-31T13:22:44;1.23;;;0.50;;
13185;SDS011;6658;53.080;7.428;2023-10-31T13:25:11;3.70;;;1.00;;
13185;SDS011;6658;53.080;7.428;2023-10-31T13:27:38;1.50;;;0.50;;
13185;SDS011;6658;53.080;7.428;2023-10-31T13:30:08;2.10;;;0.80;;
13185;SDS011;6658;53.080;7.428;2023-10-31T13:32:39;1.73;;;0.87;;
13185;SDS011;6658;53.080;7.428;2023-10-31T13:35:08;1.43;;;0.40;;
13185;SDS011;6658;53.080;7.428;2023-10-31T13:37:39;1.17;;;0.60;;
13185;SDS011;6658;53.080;7.428;2023-10-31T13:40:05;1.57;;;0.70;;
13185;SDS011;6658;53.080;7.428;2023-10-31T13:42:33;1.70;;;0.57;;
13185;SDS011;6658;53.080;7.428;2023-10-31T13:44:59;0.80;;;0.50;;
13185;SDS011;6658;53.080;7.428;2023-10-31T13:47:25;3.00;;;1.03;;
13185;SDS011;6658;53.080;7.428;2023-10-31T13:49:50;2.57;;;0.57;;
13185;SDS011;6658;53.080;7.428;2023-10-31T13:52:16;1.43;;;0.70;;
13185;SDS011;6658;53.080;7.428;2023-10-31T13:54:42;0.93;;;0.60;;
13185;SDS011;6658;53.080;7.428;2023-10-31T13:57:08;3.03;;;0.60;;
13185;SDS011;6658;53.080;7.428;2023-10-31T13:59:37;4.03;;;3.27;;
13185;SDS011;6658;53.080;7.428;2023-10-31T14:02:04;5.00;;;4.20;;
13185;SDS011;6658;53.080;7.428;2023-10-31T14:04:30;1.53;;;1.07;;
13185;SDS011;6658;53.080;7.428;2023-10-31T14:06:56;2.03;;;1.00;;
13185;SDS011;6658;53.080;7.428;2023-10-31T14:09:22;1.53;;;0.80;;
13185;SDS011;6658;53.080;7.428;2023-10-31T14:11:48;3.83;;;1.97;;
13185;SDS011;6658;53.080;7.428;2023-10-31T14:14:14;1.83;;;1.70;;
13185;SDS011;6658;53.080;7.428;2023-10-31T14:16:40;2.20;;;0.83;;
13185;SDS011;6658;53.080;7.428;2023-10-31T14:19:06;2.33;;;0.83;;
13185;SDS011;6658;53.080;7.428;2023-10-31T14:21:33;2.90;;;1.30;;
13185;SDS011;6658;53.080;7.428;2023-10-31T14:23:59;2.20;;;0.83;;
13185;SDS011;6658;53.080;7.428;2023-10-31T14:26:26;3.20;;;1.13;;
13185;SDS011;6658;53.080;7.428;2023-10-31T14:28:52;1.47;;;0.93;;
13185;SDS011;6658;53.080;7.428;2023-10-31T14:31:18;3.70;;;0.90;;
13185;SDS011;6658;53.080;7.428;2023-10-31T14:33:46;1.17;;;0.43;;
13185;SDS011;6658;53.080;7.428;2023-10-31T14:36:12;2.03;;;0.83;;
13185;SDS011;6658;53.080;7.428;2023-10-31T14:38:38;2.40;;;0.80;;
13185;SDS011;6658;53.080;7.428;2023-10-31T14:41:07;1.13;;;0.50;;
13185;SDS011;6658;53.080;7.428;2023-10-31T14:43:33;1.57;;;0.57;;
13185;SDS011;6658;53.080;7.428;2023-10-31T14:45:59;1.83;;;0.83;;
13185;SDS011;6658;53.080;7.428;2023-10-31T14:48:26;1.83;;;1.00;;
13185;SDS011;6658;53.080;7.428;2023-10-31T14:50:52;3.33;;;0.90;;
13185;SDS011;6658;53.080;7.428;2023-10-31T14:53:18;2.83;;;1.53;;
13185;SDS011;6658;53.080;7.428;2023-10-31T14:55:47;2.33;;;1.40;;
13185;SDS011;6658;53.080;7.428;2023-10-31T14:58:13;4.50;;;1.93;;
13185;SDS011;6658;53.080;7.428;2023-10-31T15:00:38;4.83;;;1.03;;
13185;SDS011;6658;53.080;7.428;2023-10-31T15:03:04;2.97;;;0.83;;
13185;SDS011;6658;53.080;7.428;2023-10-31T15:05:30;1.03;;;0.70;;
13185;SDS011;6658;53.080;7.428;2023-10-31T15:07:56;2.03;;;0.93;;
13185;SDS011;6658;53.080;7.428;2023-10-31T15:10:23;4.87;;;0.90;;
13185;SDS011;6658;53.080;7.428;2023-10-31T15:12:49;1.93;;;1.00;;